createdAt,value
2022-11-30T00:01:21.904Z,3.60
2022-11-30T00:03:52.498Z,3.60
2022-11-30T00:06:23.158Z,3.50
2022-11-30T00:08:55.789Z,3.50
2022-11-30T00:11:24.592Z,3.50
2022-11-30T00:13:51.354Z,3.40
2022-11-30T00:16:18.109Z,3.40
2022-11-30T00:18:45.138Z,3.50
2022-11-30T00:21:13.789Z,3.40
2022-11-30T00:23:42.741Z,3.40
2022-11-30T00:26:12.116Z,3.40
2022-11-30T00:28:40.213Z,3.40
2022-11-30T00:31:11.149Z,3.40
2022-11-30T00:33:38.690Z,3.30
2022-11-30T00:36:08.603Z,3.40
2022-11-30T00:38:36.014Z,3.40
2022-11-30T00:41:03.729Z,3.40
2022-11-30T00:43:30.804Z,3.40
2022-11-30T00:45:58.007Z,3.40
2022-11-30T00:48:25.226Z,3.30
2022-11-30T00:50:52.251Z,3.30
2022-11-30T00:53:19.692Z,3.30
2022-11-30T00:55:47.039Z,3.30
2022-11-30T00:58:14.309Z,3.30
2022-11-30T01:00:41.410Z,3.30
2022-11-30T01:03:08.526Z,3.30
2022-11-30T01:05:36.428Z,3.30
2022-11-30T01:08:04.956Z,3.30
2022-11-30T01:10:32.883Z,3.30
2022-11-30T01:12:59.673Z,3.30
2022-11-30T01:15:26.506Z,3.30
2022-11-30T01:17:53.463Z,3.30
2022-11-30T01:20:20.240Z,3.30
2022-11-30T01:22:46.964Z,3.30
2022-11-30T01:25:13.891Z,3.30
2022-11-30T01:27:40.601Z,3.20
2022-11-30T01:30:07.798Z,3.20
2022-11-30T01:32:34.558Z,3.30
2022-11-30T01:35:01.273Z,3.30
2022-11-30T01:37:30.010Z,3.30
2022-11-30T01:39:56.915Z,3.30
2022-11-30T01:42:24.001Z,3.30
2022-11-30T01:44:55.262Z,3.40
2022-11-30T01:47:30.677Z,3.40
2022-11-30T01:50:19.521Z,3.50
2022-11-30T01:52:53.850Z,3.40
2022-11-30T01:55:31.145Z,3.40
2022-11-30T01:58:32.422Z,3.40
2022-11-30T02:00:59.936Z,3.40
2022-11-30T02:03:36.212Z,3.50
2022-11-30T02:06:03.172Z,3.50
2022-11-30T02:08:31.718Z,3.50
2022-11-30T02:11:03.944Z,3.50
2022-11-30T02:13:59.400Z,3.50
2022-11-30T02:16:55.371Z,3.50
2022-11-30T02:19:24.851Z,3.50
2022-11-30T02:22:19.042Z,3.50
2022-11-30T02:25:04.804Z,3.40
2022-11-30T02:27:40.678Z,3.40
2022-11-30T02:30:18.582Z,3.40
2022-11-30T02:33:03.168Z,3.30
2022-11-30T02:35:36.119Z,3.30
2022-11-30T02:38:04.884Z,3.30
2022-11-30T02:40:31.779Z,3.30
2022-11-30T02:43:01.215Z,3.30
2022-11-30T02:45:43.285Z,3.20
2022-11-30T02:48:12.104Z,3.20
2022-11-30T02:50:41.398Z,3.20
2022-11-30T02:53:09.973Z,3.30
2022-11-30T02:55:37.947Z,3.30
2022-11-30T02:58:05.442Z,3.30
2022-11-30T03:00:32.268Z,3.30
2022-11-30T03:02:59.257Z,3.20
2022-11-30T03:05:26.025Z,3.20
2022-11-30T03:07:52.821Z,3.20
2022-11-30T03:10:19.587Z,3.20
2022-11-30T03:12:46.306Z,3.20
2022-11-30T03:15:13.082Z,3.20
2022-11-30T03:17:39.823Z,3.20
2022-11-30T03:20:07.167Z,3.30
2022-11-30T03:22:33.865Z,3.20
2022-11-30T03:25:00.641Z,3.20
2022-11-30T03:27:27.352Z,3.10
2022-11-30T03:29:54.246Z,3.10
2022-11-30T03:32:20.948Z,3.20
2022-11-30T03:34:47.939Z,3.10
2022-11-30T03:37:14.856Z,3.10
2022-11-30T03:39:41.574Z,3.20
2022-11-30T03:42:08.281Z,3.10
2022-11-30T03:44:35.003Z,3.10
2022-11-30T03:47:01.822Z,3.10
2022-11-30T03:49:28.696Z,3.10
2022-11-30T03:51:55.422Z,3.10
2022-11-30T03:54:22.309Z,3.10
2022-11-30T03:56:49.081Z,3.00
2022-11-30T03:59:15.804Z,2.90
2022-11-30T04:01:42.593Z,2.90
2022-11-30T04:04:10.930Z,2.90
2022-11-30T04:06:38.080Z,2.90
2022-11-30T04:09:04.982Z,3.00
2022-11-30T04:11:31.765Z,3.00
2022-11-30T04:13:58.541Z,2.90
2022-11-30T04:16:25.303Z,2.90
2022-11-30T04:18:52.458Z,3.00
2022-11-30T04:21:19.319Z,3.00
2022-11-30T04:23:46.080Z,3.00
2022-11-30T04:26:14.814Z,2.90
2022-11-30T04:28:42.170Z,2.90
2022-11-30T04:31:09.592Z,2.90
2022-11-30T04:33:36.649Z,3.00
2022-11-30T04:36:05.919Z,3.00
2022-11-30T04:38:33.342Z,3.00
2022-11-30T04:41:00.247Z,3.00
2022-11-30T04:43:27.262Z,2.90
2022-11-30T04:45:54.029Z,3.00
2022-11-30T04:48:20.808Z,3.00
2022-11-30T04:50:47.592Z,2.80
2022-11-30T04:53:14.308Z,2.90
2022-11-30T04:55:41.166Z,2.80
2022-11-30T04:58:08.113Z,2.80
2022-11-30T05:00:35.733Z,2.70
2022-11-30T05:03:02.582Z,2.70
2022-11-30T05:05:29.668Z,2.70
2022-11-30T05:07:58.476Z,2.70
2022-11-30T05:10:26.816Z,2.70
2022-11-30T05:12:53.594Z,2.70
2022-11-30T05:15:20.642Z,2.70
2022-11-30T05:17:48.054Z,2.70
2022-11-30T05:20:14.937Z,2.70
2022-11-30T05:22:41.685Z,2.70
2022-11-30T05:25:09.363Z,2.70
2022-11-30T05:27:37.042Z,2.70
2022-11-30T05:30:05.025Z,2.80
2022-11-30T05:32:32.261Z,2.80
2022-11-30T05:34:59.429Z,2.90
2022-11-30T05:37:26.584Z,2.90
2022-11-30T05:39:53.302Z,2.90
2022-11-30T05:42:20.112Z,2.90
2022-11-30T05:44:48.026Z,2.90
2022-11-30T05:47:15.130Z,2.90
2022-11-30T05:49:41.972Z,3.00
2022-11-30T05:52:08.823Z,3.00
2022-11-30T05:54:35.531Z,3.00
2022-11-30T05:57:02.360Z,2.90
2022-11-30T05:59:29.150Z,2.90
2022-11-30T06:01:55.985Z,2.90
2022-11-30T06:04:23.030Z,2.90
2022-11-30T06:06:52.165Z,2.90
2022-11-30T06:09:19.012Z,2.90
2022-11-30T06:11:45.737Z,2.90
2022-11-30T06:14:12.461Z,2.90
2022-11-30T06:16:39.751Z,2.90
2022-11-30T06:19:06.878Z,2.90
2022-11-30T06:21:33.932Z,2.90
2022-11-30T06:24:00.819Z,2.90
2022-11-30T06:26:27.581Z,2.90
2022-11-30T06:28:54.404Z,2.90
2022-11-30T06:31:21.205Z,2.90
2022-11-30T06:33:47.981Z,2.90
2022-11-30T06:36:19.919Z,3.00
2022-11-30T06:38:46.672Z,3.00
2022-11-30T06:41:13.376Z,3.00
2022-11-30T06:43:40.566Z,3.00
2022-11-30T06:46:07.811Z,2.90
2022-11-30T06:48:35.573Z,2.90
2022-11-30T06:51:05.550Z,3.00
2022-11-30T06:53:32.325Z,3.00
2022-11-30T06:55:59.045Z,3.10
2022-11-30T06:58:25.801Z,3.00
2022-11-30T07:00:52.581Z,3.00
2022-11-30T07:03:19.560Z,2.90
2022-11-30T07:05:47.078Z,3.00
2022-11-30T07:08:15.691Z,3.00
2022-11-30T07:10:46.959Z,3.00
2022-11-30T07:13:16.161Z,3.00
2022-11-30T07:15:44.005Z,3.00
2022-11-30T07:18:11.496Z,3.00
2022-11-30T07:20:38.643Z,3.00
2022-11-30T07:23:25.469Z,3.00
2022-11-30T07:26:09.606Z,3.00
2022-11-30T07:28:45.990Z,3.10
2022-11-30T07:31:25.133Z,3.10
2022-11-30T07:33:52.358Z,3.10
2022-11-30T07:36:20.503Z,3.20
2022-11-30T07:38:47.837Z,3.20
2022-11-30T07:41:14.992Z,3.20
2022-11-30T07:43:41.889Z,3.20
2022-11-30T07:46:11.430Z,3.30
2022-11-30T07:48:38.742Z,3.30
2022-11-30T07:51:13.070Z,3.30
2022-11-30T07:53:40.251Z,3.30
2022-11-30T07:56:13.587Z,3.30
2022-11-30T07:58:41.427Z,3.30
2022-11-30T08:01:14.794Z,3.30
2022-11-30T08:03:41.541Z,3.30
2022-11-30T08:06:14.095Z,3.30
2022-11-30T08:08:45.194Z,3.30
2022-11-30T08:11:14.766Z,3.30
2022-11-30T08:13:41.990Z,3.30
2022-11-30T08:16:15.106Z,3.40
2022-11-30T08:18:42.581Z,3.40
2022-11-30T08:21:11.880Z,3.40
2022-11-30T08:23:41.464Z,3.40
2022-11-30T08:26:12.072Z,3.30
2022-11-30T08:28:39.544Z,3.40
2022-11-30T08:31:10.105Z,3.40
2022-11-30T08:33:37.706Z,3.40
2022-11-30T08:36:19.564Z,3.40
2022-11-30T08:38:47.359Z,3.40
2022-11-30T08:41:16.318Z,3.40
2022-11-30T08:43:43.106Z,3.40
2022-11-30T08:46:42.422Z,3.40
2022-11-30T08:49:19.861Z,3.30
2022-11-30T08:52:15.794Z,3.30
2022-11-30T08:54:33.594Z,3.30
2022-11-30T08:57:00.296Z,3.30
2022-11-30T08:59:27.038Z,3.30
2022-11-30T09:01:53.757Z,3.30
2022-11-30T09:04:20.480Z,3.40
2022-11-30T09:06:47.198Z,3.40
2022-11-30T09:09:14.774Z,3.40
2022-11-30T09:11:43.303Z,3.40
2022-11-30T09:14:10.329Z,3.40
2022-11-30T09:16:37.308Z,3.50
2022-11-30T09:19:04.097Z,3.50
2022-11-30T09:21:31.035Z,3.40
2022-11-30T09:23:57.879Z,3.40
2022-11-30T09:26:25.376Z,3.50
2022-11-30T09:28:54.895Z,3.50
2022-11-30T09:31:24.022Z,3.50
2022-11-30T09:33:51.984Z,3.50
2022-11-30T09:36:21.647Z,3.50
2022-11-30T09:38:48.777Z,3.50
2022-11-30T09:41:40.744Z,3.50
2022-11-30T09:44:25.323Z,3.50
2022-11-30T09:47:35.978Z,3.40
2022-11-30T09:50:10.498Z,3.40
2022-11-30T09:52:41.818Z,3.30
2022-11-30T09:55:11.864Z,3.30
2022-11-30T09:57:46.296Z,3.30
2022-11-30T10:00:17.737Z,3.30
2022-11-30T10:02:45.654Z,3.40
2022-11-30T10:05:19.531Z,3.50
2022-11-30T10:08:04.987Z,3.50
2022-11-30T10:10:46.303Z,3.60
2022-11-30T10:13:59.526Z,3.50
2022-11-30T10:16:42.234Z,3.40
2022-11-30T10:19:11.679Z,3.40
2022-11-30T10:21:57.157Z,3.50
2022-11-30T10:24:29.542Z,3.40
2022-11-30T10:26:58.152Z,3.40
2022-11-30T10:29:38.205Z,3.40
2022-11-30T10:32:18.370Z,3.50
2022-11-30T10:34:50.160Z,3.30
2022-11-30T10:37:21.713Z,3.40
2022-11-30T10:40:05.788Z,3.50
2022-11-30T10:42:44.663Z,3.40
2022-11-30T10:45:13.130Z,3.40
2022-11-30T10:47:51.354Z,3.40
2022-11-30T10:50:18.567Z,3.40
2022-11-30T10:52:48.549Z,3.40
2022-11-30T10:55:20.473Z,3.40
2022-11-30T10:57:51.040Z,3.50
2022-11-30T11:00:18.241Z,3.60
2022-11-30T11:02:49.299Z,3.60
2022-11-30T11:05:29.270Z,3.60
2022-11-30T11:08:24.632Z,3.60
2022-11-30T11:10:51.691Z,3.50
2022-11-30T11:13:41.128Z,3.50
2022-11-30T11:16:10.792Z,3.50
2022-11-30T11:18:53.249Z,3.40
2022-11-30T11:21:22.818Z,3.40
2022-11-30T11:23:57.416Z,3.40
2022-11-30T11:26:29.867Z,3.50
2022-11-30T11:29:02.301Z,3.40
2022-11-30T11:31:39.314Z,3.40
2022-11-30T11:34:24.402Z,3.30
2022-11-30T11:37:07.938Z,3.20
2022-11-30T11:39:37.632Z,3.20
2022-11-30T11:42:05.498Z,3.20
2022-11-30T11:44:35.483Z,3.20
2022-11-30T11:47:06.908Z,3.30
2022-11-30T11:49:36.944Z,3.30
2022-11-30T11:52:15.257Z,3.30
2022-11-30T11:55:01.754Z,3.40
2022-11-30T11:57:45.003Z,3.40
2022-11-30T12:00:18.202Z,3.40
2022-11-30T12:02:48.000Z,3.40
2022-11-30T12:05:21.147Z,3.40
2022-11-30T12:08:07.522Z,3.40
2022-11-30T12:10:52.197Z,3.40
2022-11-30T12:13:26.997Z,3.30
2022-11-30T12:16:12.258Z,3.30
2022-11-30T12:18:51.174Z,3.30
2022-11-30T12:21:43.598Z,3.40
2022-11-30T12:24:25.731Z,3.50
2022-11-30T12:26:59.018Z,3.50
2022-11-30T12:29:39.437Z,3.60
2022-11-30T12:32:43.250Z,3.70
2022-11-30T12:35:37.320Z,3.80
2022-11-30T12:38:19.186Z,3.80
2022-11-30T12:41:12.557Z,3.90
2022-11-30T12:44:00.467Z,3.80
2022-11-30T12:46:51.700Z,3.80
2022-11-30T12:49:27.066Z,3.70
2022-11-30T12:52:08.565Z,3.60
2022-11-30T12:55:17.043Z,3.60
2022-11-30T12:58:08.795Z,3.60
2022-11-30T13:01:18.424Z,3.60
2022-11-30T13:04:02.516Z,3.60
2022-11-30T13:06:42.670Z,3.50
2022-11-30T13:09:31.601Z,3.50
2022-11-30T13:12:08.195Z,3.40
2022-11-30T13:14:36.079Z,3.30
2022-11-30T13:17:16.933Z,3.30
2022-11-30T13:19:55.591Z,3.30
2022-11-30T13:22:52.832Z,3.20
2022-11-30T13:26:06.458Z,3.20
2022-11-30T13:29:13.416Z,3.20
2022-11-30T13:32:04.304Z,3.10
2022-11-30T13:34:32.677Z,3.10
2022-11-30T13:37:12.985Z,3.00
2022-11-30T13:39:45.987Z,2.90
2022-11-30T13:42:21.749Z,3.00
2022-11-30T13:44:49.854Z,3.00
2022-11-30T13:47:31.136Z,3.00
2022-11-30T13:50:05.936Z,2.90
2022-11-30T13:52:57.630Z,2.90
2022-11-30T13:55:42.548Z,2.80
2022-11-30T13:58:11.931Z,2.80
2022-11-30T14:00:40.514Z,2.80
2022-11-30T14:03:22.650Z,2.80
2022-11-30T14:05:50.013Z,2.80
2022-11-30T14:08:21.660Z,2.80
2022-11-30T14:10:53.119Z,2.80
2022-11-30T14:13:21.203Z,2.70
2022-11-30T14:15:47.902Z,2.80
2022-11-30T14:18:21.880Z,2.70
2022-11-30T14:20:50.942Z,2.70
2022-11-30T14:23:20.292Z,2.70
2022-11-30T14:25:50.883Z,2.70
2022-11-30T14:28:21.354Z,2.70
2022-11-30T14:30:48.913Z,2.60
2022-11-30T14:33:25.575Z,2.70
2022-11-30T14:35:56.408Z,2.60
2022-11-30T14:38:29.476Z,2.70
2022-11-30T14:40:57.146Z,2.70
2022-11-30T14:43:24.498Z,2.60
2022-11-30T14:46:09.154Z,2.60
2022-11-30T14:48:39.081Z,2.70
2022-11-30T14:51:06.212Z,2.70
2022-11-30T14:54:00.521Z,2.70
2022-11-30T14:56:40.762Z,2.70
2022-11-30T14:59:32.310Z,2.70
2022-11-30T15:02:02.739Z,2.60
2022-11-30T15:04:30.652Z,2.60
2022-11-30T15:06:58.028Z,2.60
2022-11-30T15:09:31.348Z,2.60
2022-11-30T15:11:59.020Z,2.60
2022-11-30T15:14:25.820Z,2.60
2022-11-30T15:16:54.956Z,2.60
2022-11-30T15:19:25.198Z,2.60
2022-11-30T15:21:52.991Z,2.60
2022-11-30T15:24:20.440Z,2.60
2022-11-30T15:26:53.720Z,2.60
2022-11-30T15:29:30.922Z,2.60
2022-11-30T15:32:00.587Z,2.60
2022-11-30T15:34:37.221Z,2.60
2022-11-30T15:37:05.246Z,2.60
2022-11-30T15:39:32.695Z,2.70
2022-11-30T15:42:01.593Z,2.70
2022-11-30T15:44:37.334Z,2.70
2022-11-30T15:47:07.237Z,2.70
2022-11-30T15:49:36.336Z,2.70
2022-11-30T15:52:11.904Z,2.70
2022-11-30T15:54:46.053Z,2.70
2022-11-30T15:57:13.303Z,2.60
2022-11-30T15:59:40.400Z,2.60
2022-11-30T16:02:23.779Z,2.60
2022-11-30T16:04:56.571Z,2.60
2022-11-30T16:07:30.341Z,2.60
2022-11-30T16:10:13.976Z,2.60
2022-11-30T16:12:41.882Z,2.70
2022-11-30T16:15:30.461Z,2.60
2022-11-30T16:18:13.736Z,2.60
2022-11-30T16:20:42.293Z,2.50
2022-11-30T16:23:15.923Z,2.50
2022-11-30T16:25:43.779Z,2.40
2022-11-30T16:28:12.342Z,2.40
2022-11-30T16:30:41.041Z,2.30
2022-11-30T16:33:14.728Z,2.30
2022-11-30T16:36:07.580Z,2.30
2022-11-30T16:38:34.441Z,2.20
2022-11-30T16:41:19.916Z,2.20
2022-11-30T16:43:48.261Z,2.10
2022-11-30T16:46:20.360Z,2.00
2022-11-30T16:48:47.722Z,1.90
2022-11-30T16:51:28.588Z,1.90
2022-11-30T16:53:55.943Z,1.90
2022-11-30T16:56:23.074Z,1.80
2022-11-30T16:58:50.453Z,1.80
2022-11-30T17:01:48.269Z,1.80
2022-11-30T17:04:31.622Z,1.80
2022-11-30T17:07:02.782Z,1.80
2022-11-30T17:09:30.391Z,1.80
2022-11-30T17:11:57.340Z,1.80
2022-11-30T17:14:24.058Z,1.80
2022-11-30T17:16:50.900Z,1.70
2022-11-30T17:19:17.663Z,1.70
2022-11-30T17:21:44.684Z,1.70
2022-11-30T17:24:12.679Z,1.60
2022-11-30T17:26:39.526Z,1.70
2022-11-30T17:29:06.380Z,1.60
2022-11-30T17:31:33.127Z,1.70
2022-11-30T17:34:00.695Z,1.60
2022-11-30T17:36:29.266Z,1.60
2022-11-30T17:38:56.644Z,1.70
2022-11-30T17:41:23.530Z,1.60
2022-11-30T17:43:50.300Z,1.60
2022-11-30T17:46:18.387Z,1.60
2022-11-30T17:48:45.669Z,1.70
2022-11-30T17:51:13.247Z,1.70
2022-11-30T17:53:41.895Z,1.70
2022-11-30T17:56:11.117Z,1.70
2022-11-30T17:58:43.499Z,1.80
2022-11-30T18:01:24.308Z,1.80
2022-11-30T18:03:51.803Z,1.70
2022-11-30T18:06:19.139Z,1.80
2022-11-30T18:08:46.250Z,1.80
2022-11-30T18:11:15.962Z,1.80
2022-11-30T18:13:42.861Z,1.80
2022-11-30T18:16:12.506Z,1.80
2022-11-30T18:18:45.806Z,1.80
2022-11-30T18:21:17.759Z,1.80
2022-11-30T18:23:44.721Z,1.80
2022-11-30T18:26:17.799Z,1.80
2022-11-30T18:28:45.522Z,1.80
2022-11-30T18:31:13.207Z,1.70
2022-11-30T18:33:40.124Z,1.70
2022-11-30T18:36:07.741Z,1.60
2022-11-30T18:38:37.857Z,1.60
2022-11-30T18:41:06.305Z,1.60
2022-11-30T18:43:33.864Z,1.60
2022-11-30T18:46:04.326Z,1.60
2022-11-30T18:48:31.156Z,1.60
2022-11-30T18:50:58.209Z,1.60
2022-11-30T18:53:24.993Z,1.60
2022-11-30T18:55:51.864Z,1.60
2022-11-30T18:58:18.647Z,1.60
2022-11-30T19:00:45.373Z,1.50
2022-11-30T19:03:12.110Z,1.50
2022-11-30T19:05:40.437Z,1.50
2022-11-30T19:08:11.250Z,1.60
2022-11-30T19:10:40.061Z,1.50
2022-11-30T19:13:07.214Z,1.50
2022-11-30T19:15:38.871Z,1.50
2022-11-30T19:18:06.199Z,1.50
2022-11-30T19:20:40.426Z,1.50
2022-11-30T19:23:07.523Z,1.50
2022-11-30T19:25:34.338Z,1.50
2022-11-30T19:28:01.097Z,1.40
2022-11-30T19:30:28.063Z,1.40
2022-11-30T19:32:55.035Z,1.40
2022-11-30T19:35:23.112Z,1.30
2022-11-30T19:37:52.536Z,1.30
2022-11-30T19:40:19.346Z,1.30
2022-11-30T19:42:46.098Z,1.20
2022-11-30T19:45:12.893Z,1.10
2022-11-30T19:47:39.653Z,1.10
2022-11-30T19:50:07.026Z,1.10
2022-11-30T19:52:34.243Z,1.00
2022-11-30T19:55:01.034Z,0.90
2022-11-30T19:57:27.786Z,0.80
2022-11-30T19:59:54.668Z,0.80
2022-11-30T20:02:21.444Z,0.70
2022-11-30T20:04:48.574Z,0.80
2022-11-30T20:07:15.587Z,0.80
2022-11-30T20:09:42.453Z,0.80
2022-11-30T20:12:09.188Z,0.80
2022-11-30T20:14:36.787Z,0.80
2022-11-30T20:17:03.783Z,0.90
2022-11-30T20:19:31.611Z,0.90
2022-11-30T20:21:59.269Z,1.00
2022-11-30T20:24:26.550Z,1.00
2022-11-30T20:26:53.966Z,0.90
2022-11-30T20:29:20.726Z,0.80
2022-11-30T20:31:48.945Z,0.70
2022-11-30T20:34:16.973Z,0.70
2022-11-30T20:36:43.732Z,0.70
2022-11-30T20:39:11.393Z,0.80
2022-11-30T20:41:38.344Z,0.70
2022-11-30T20:44:05.149Z,0.60
2022-11-30T20:46:34.836Z,0.50
2022-11-30T20:49:03.091Z,0.50
2022-11-30T20:51:33.247Z,0.50
2022-11-30T20:54:02.764Z,0.50
2022-11-30T20:56:30.034Z,0.50
2022-11-30T20:59:00.090Z,0.40
2022-11-30T21:01:26.862Z,0.40
2022-11-30T21:03:53.721Z,0.40
2022-11-30T21:06:20.766Z,0.40
2022-11-30T21:08:47.559Z,0.40
2022-11-30T21:11:17.433Z,0.30
2022-11-30T21:13:45.777Z,0.30
2022-11-30T21:16:14.630Z,0.30
2022-11-30T21:18:44.232Z,0.30
2022-11-30T21:21:20.181Z,0.30
2022-11-30T21:23:47.753Z,0.20
2022-11-30T21:26:20.552Z,0.20
2022-11-30T21:28:48.810Z,0.10
2022-11-30T21:31:16.056Z,0.10
2022-11-30T21:33:45.870Z,0.00
2022-11-30T21:36:17.496Z,0.00
2022-11-30T21:38:44.320Z,0.00
2022-11-30T21:41:12.669Z,-3276.70
2022-11-30T21:43:39.991Z,-3276.70
2022-11-30T21:46:17.966Z,-3276.60
2022-11-30T21:48:48.622Z,-3276.50
2022-11-30T21:51:20.914Z,-3276.50
2022-11-30T21:53:53.774Z,-3276.50
2022-11-30T21:56:24.579Z,-3276.50
2022-11-30T21:58:51.773Z,-3276.50
2022-11-30T22:01:25.404Z,-3276.50
2022-11-30T22:03:53.971Z,-3276.60
2022-11-30T22:06:20.852Z,-3276.60
2022-11-30T22:08:47.722Z,-3276.70
2022-11-30T22:11:17.228Z,-3276.70
2022-11-30T22:13:45.110Z,-3276.70
2022-11-30T22:16:14.821Z,-3276.70
2022-11-30T22:18:42.823Z,0.00
2022-11-30T22:21:17.727Z,0.00
2022-11-30T22:23:56.016Z,-3276.70
2022-11-30T22:26:28.243Z,-3276.70
2022-11-30T22:29:00.394Z,0.00
2022-11-30T22:31:29.813Z,0.00
2022-11-30T22:33:57.550Z,0.00
2022-11-30T22:36:27.289Z,-3276.70
2022-11-30T22:38:56.120Z,-3276.70
2022-11-30T22:41:23.723Z,-3276.60
2022-11-30T22:43:50.537Z,-3276.60
2022-11-30T22:46:25.849Z,-3276.50
2022-11-30T22:48:53.180Z,-3276.50
2022-11-30T22:51:25.272Z,-3276.50
2022-11-30T22:53:53.224Z,-3276.40
2022-11-30T22:56:31.860Z,-3276.40
2022-11-30T22:59:00.793Z,-3276.30
2022-11-30T23:01:32.287Z,-3276.30
2022-11-30T23:04:04.985Z,-3276.30
2022-11-30T23:06:32.757Z,-3276.30
2022-11-30T23:09:00.611Z,-3276.30
2022-11-30T23:11:29.906Z,-3276.30
2022-11-30T23:13:56.933Z,-3276.20
2022-11-30T23:16:24.164Z,-3276.10
2022-11-30T23:19:00.366Z,-3276.10
2022-11-30T23:21:41.669Z,-3276.00
2022-11-30T23:24:13.379Z,-3276.00
2022-11-30T23:26:40.921Z,-3276.00
2022-11-30T23:29:10.261Z,-3276.00
2022-11-30T23:31:39.434Z,-3276.00
2022-11-30T23:34:10.660Z,-3276.00
2022-11-30T23:36:37.860Z,-3275.90
2022-11-30T23:39:10.908Z,-3276.00
2022-11-30T23:41:38.415Z,-3275.90
2022-11-30T23:44:05.652Z,-3275.90
2022-11-30T23:46:32.509Z,-3275.90
2022-11-30T23:48:59.674Z,-3275.80
2022-11-30T23:51:26.485Z,-3275.80
2022-11-30T23:53:53.653Z,-3275.80
2022-11-30T23:56:22.045Z,-3275.70
2022-11-30T23:58:49.135Z,-3275.70
